Time;durP1;ratioP1;P1;durP2;ratioP2;P2;SDS_P1;SDS_P2;PMS_P1;PMS_P2;Temp;Humidity;BMP_temperature;BMP_pressure;BME280_temperature;BME280_humidity;BME280_pressure;Samples;Min_cycle;Max_cycle;Signal;HPM_P1;HPM_P2
2021/11/05 00:01:48;;;;;;;34.30;22.10;;;7.80;99.90;;;;;;5029961;28;20244;-64
2021/11/05 00:04:16;;;;;;;33.57;21.63;;;7.70;99.90;;;;;;5027476;28;20240;-64
2021/11/05 00:06:44;;;;;;;40.07;22.23;;;7.80;99.90;;;;;;5030130;28;20272;-64
2021/11/05 00:09:13;;;;;;;34.47;22.50;;;8.00;99.90;;;;;;5029068;28;20237;-63
2021/11/05 00:11:42;;;;;;;42.43;23.10;;;8.00;99.90;;;;;;5029110;28;20236;-63
2021/11/05 00:14:10;;;;;;;43.20;25.13;;;8.10;99.90;;;;;;5028220;28;20592;-64
2021/11/05 00:16:38;;;;;;;41.17;24.33;;;8.10;99.90;;;;;;5029716;28;20745;-64
2021/11/05 00:19:07;;;;;;;38.00;24.27;;;8.00;99.90;;;;;;5029317;28;20335;-64
2021/11/05 00:21:37;;;;;;;36.93;22.07;;;8.00;99.90;;;;;;5029997;28;20244;-63
2021/11/05 00:24:06;;;;;;;37.87;24.23;;;8.10;99.90;;;;;;5026683;28;20670;-64
2021/11/05 00:26:34;;;;;;;38.03;23.10;;;8.20;99.90;;;;;;5029861;28;20228;-63
2021/11/05 00:29:04;;;;;;;35.40;21.33;;;8.20;99.90;;;;;;5029475;28;20275;-64
2021/11/05 00:31:32;;;;;;;39.10;24.37;;;8.20;99.90;;;;;;5026423;28;20229;-64
2021/11/05 00:34:00;;;;;;;33.60;23.77;;;8.20;99.90;;;;;;5029575;28;20401;-64
2021/11/05 00:36:28;;;;;;;33.37;23.30;;;8.20;99.90;;;;;;5024825;28;20233;-65
2021/11/05 00:38:56;;;;;;;32.83;21.50;;;8.20;99.90;;;;;;5029815;28;20350;-65
2021/11/05 00:41:26;;;;;;;30.93;21.93;;;8.20;99.90;;;;;;5029453;28;20232;-63
2021/11/05 00:43:54;;;;;;;30.47;19.63;;;8.10;99.90;;;;;;5029053;28;20312;-65
2021/11/05 00:46:24;;;;;;;33.47;20.67;;;8.10;99.90;;;;;;5029164;28;20464;-64
2021/11/05 00:48:52;;;;;;;31.17;21.03;;;8.20;99.90;;;;;;5029052;28;20245;-63
2021/11/05 00:51:20;;;;;;;30.77;20.80;;;8.10;99.90;;;;;;5029562;28;20264;-64
2021/11/05 00:53:51;;;;;;;30.80;20.50;;;8.10;99.90;;;;;;5028547;28;20250;-63
2021/11/05 00:56:19;;;;;;;29.60;20.03;;;8.10;99.90;;;;;;5027762;28;20228;-64
2021/11/05 00:58:47;;;;;;;30.73;19.73;;;8.10;99.90;;;;;;5028834;28;20312;-64
2021/11/05 01:01:15;;;;;;;28.10;18.90;;;8.30;99.90;;;;;;5029294;28;20762;-64
2021/11/05 01:03:45;;;;;;;30.57;18.77;;;8.20;99.90;;;;;;5026504;28;20359;-64
2021/11/05 01:06:14;;;;;;;34.47;19.20;;;8.30;99.90;;;;;;5027283;28;20248;-64
2021/11/05 01:08:42;;;;;;;29.00;20.50;;;8.30;99.90;;;;;;5028206;28;20243;-64
2021/11/05 01:11:10;;;;;;;27.87;19.37;;;8.30;99.90;;;;;;5024358;28;20646;-63
2021/11/05 01:13:39;;;;;;;30.20;20.90;;;8.20;99.90;;;;;;5028902;28;20599;-64
2021/11/05 01:16:07;;;;;;;24.00;16.80;;;8.20;99.90;;;;;;5024190;28;20272;-64
2021/11/05 01:18:35;;;;;;;27.90;19.20;;;8.20;99.90;;;;;;5028497;28;20810;-64
2021/11/05 01:21:05;;;;;;;25.67;19.37;;;8.20;99.90;;;;;;5028641;28;20324;-64
2021/11/05 01:23:33;;;;;;;26.00;19.17;;;8.10;99.90;;;;;;5028480;28;20258;-64
2021/11/05 01:26:01;;;;;;;27.60;19.53;;;8.30;99.90;;;;;;5028904;28;20703;-64
2021/11/05 01:28:29;;;;;;;29.53;19.20;;;8.20;99.90;;;;;;5027799;28;20731;-64
2021/11/05 01:30:58;;;;;;;26.13;18.73;;;8.20;99.90;;;;;;5024767;28;20650;-63
2021/11/05 01:33:26;;;;;;;24.57;15.77;;;8.20;99.90;;;;;;5028274;28;20240;-64
2021/11/05 01:35:54;;;;;;;27.80;19.17;;;8.30;99.90;;;;;;5028288;28;20236;-64
2021/11/05 01:38:23;;;;;;;24.43;17.47;;;8.40;99.90;;;;;;5028696;28;20232;-66
2021/11/05 01:40:52;;;;;;;23.43;17.67;;;8.30;99.90;;;;;;5028128;28;20657;-63
2021/11/05 01:43:20;;;;;;;25.53;17.53;;;8.30;99.90;;;;;;5028657;28;20232;-64
2021/11/05 01:45:49;;;;;;;25.27;17.83;;;8.30;99.90;;;;;;5028197;28;20263;-64
2021/11/05 01:48:18;;;;;;;20.73;16.27;;;8.20;99.90;;;;;;5027845;28;20319;-64
2021/11/05 01:50:46;;;;;;;22.30;15.63;;;8.20;99.90;;;;;;5027523;28;20339;-64
2021/11/05 01:53:14;;;;;;;25.13;16.83;;;8.40;99.90;;;;;;5028570;28;20228;-64
2021/11/05 01:55:44;;;;;;;21.97;15.33;;;8.40;99.90;;;;;;5028016;28;20607;-64
2021/11/05 01:58:13;;;;;;;23.03;17.47;;;8.50;99.90;;;;;;5027934;28;20573;-65
2021/11/05 02:00:41;;;;;;;22.77;18.30;;;8.50;99.90;;;;;;5022951;28;20286;-64
2021/11/05 02:03:10;;;;;;;25.63;16.63;;;8.50;99.90;;;;;;5027544;28;20237;-64
2021/11/05 02:05:39;;;;;;;20.80;16.20;;;8.50;99.90;;;;;;5027607;28;20699;-64
2021/11/05 02:08:08;;;;;;;24.10;16.50;;;8.60;99.90;;;;;;5027598;28;20236;-64
2021/11/05 02:10:36;;;;;;;18.73;15.37;;;8.50;99.90;;;;;;5023054;28;20311;-63
2021/11/05 02:13:06;;;;;;;19.83;14.47;;;8.50;99.90;;;;;;5027953;28;20236;-64
2021/11/05 02:15:34;;;;;;;23.67;16.70;;;8.60;99.90;;;;;;5022778;28;20240;-64
2021/11/05 02:18:02;;;;;;;21.33;16.23;;;8.60;99.90;;;;;;5027307;28;20311;-65
2021/11/05 02:20:31;;;;;;;23.70;15.93;;;8.50;99.90;;;;;;5023564;28;20324;-63
2021/11/05 02:23:01;;;;;;;21.57;14.50;;;8.40;99.90;;;;;;5027543;28;20772;-65
2021/11/05 02:25:29;;;;;;;26.37;16.23;;;8.50;99.90;;;;;;5023523;28;20240;-64
2021/11/05 02:27:57;;;;;;;22.07;15.37;;;8.40;99.90;;;;;;5027611;28;20696;-65
2021/11/05 02:30:25;;;;;;;21.63;15.73;;;8.50;99.90;;;;;;5026838;28;20240;-64
2021/11/05 02:32:54;;;;;;;19.37;14.07;;;8.50;99.90;;;;;;5026775;28;20343;-65
2021/11/05 02:35:22;;;;;;;21.13;16.70;;;8.40;99.90;;;;;;5027119;28;20315;-65
2021/11/05 02:37:50;;;;;;;22.63;13.93;;;8.30;99.90;;;;;;5027238;28;20237;-63
2021/11/05 02:40:19;;;;;;;23.60;14.17;;;8.30;99.90;;;;;;5026017;28;20319;-64
2021/11/05 02:42:47;;;;;;;23.53;14.80;;;8.40;99.90;;;;;;5027396;28;20232;-64
2021/11/05 02:45:16;;;;;;;22.47;14.40;;;8.40;99.90;;;;;;5027186;28;20228;-64
2021/11/05 02:47:44;;;;;;;22.57;15.03;;;8.40;99.90;;;;;;5027396;28;20236;-64
2021/11/05 02:50:15;;;;;;;19.60;14.80;;;8.30;99.90;;;;;;5025922;28;20291;-64
2021/11/05 02:52:43;;;;;;;19.23;13.90;;;8.40;99.90;;;;;;5027176;28;20327;-64
2021/11/05 02:55:13;;;;;;;19.10;15.27;;;8.30;99.90;;;;;;5026704;28;20699;-63
2021/11/05 02:57:43;;;;;;;20.10;14.17;;;8.30;99.90;;;;;;5027217;28;20259;-63
2021/11/05 03:00:13;;;;;;;22.83;15.03;;;8.50;99.90;;;;;;5026045;28;20319;-64
2021/11/05 03:02:42;;;;;;;19.17;14.47;;;8.50;99.90;;;;;;5025474;28;20293;-64
2021/11/05 03:05:11;;;;;;;22.33;14.90;;;8.40;99.90;;;;;;5026677;28;20240;-63
2021/11/05 03:07:39;;;;;;;19.27;15.10;;;8.30;99.90;;;;;;5026642;28;20236;-63
2021/11/05 03:10:08;;;;;;;20.53;14.70;;;8.30;99.90;;;;;;5026176;28;20811;-65
2021/11/05 03:12:37;;;;;;;17.47;13.33;;;8.40;99.90;;;;;;5026653;28;20332;-64
2021/11/05 03:15:06;;;;;;;16.97;14.03;;;8.30;99.90;;;;;;5026687;28;20744;-64
2021/11/05 03:17:35;;;;;;;17.13;13.40;;;8.20;99.90;;;;;;5026117;28;20251;-64
2021/11/05 03:20:05;;;;;;;18.50;13.73;;;8.00;99.90;;;;;;5025149;28;20247;-64
2021/11/05 03:22:33;;;;;;;17.03;12.70;;;8.00;99.90;;;;;;5026430;28;20320;-64
2021/11/05 03:25:01;;;;;;;18.00;13.50;;;7.90;99.90;;;;;;5026844;28;20623;-64
2021/11/05 03:27:29;;;;;;;21.57;14.10;;;8.00;99.90;;;;;;5026088;28;20286;-63
2021/11/05 03:29:57;;;;;;;18.97;14.07;;;8.00;99.90;;;;;;5026410;28;20711;-63
2021/11/05 03:32:27;;;;;;;19.30;13.50;;;8.20;99.90;;;;;;5026090;28;20688;-64
2021/11/05 03:34:55;;;;;;;20.63;13.50;;;8.10;99.90;;;;;;5026621;28;20240;-65
2021/11/05 03:37:23;;;;;;;17.37;13.97;;;8.10;99.90;;;;;;5026355;28;20270;-64
2021/11/05 03:39:51;;;;;;;20.07;13.37;;;8.10;99.90;;;;;;5026208;28;20248;-64
2021/11/05 03:42:19;;;;;;;17.83;13.70;;;8.40;99.90;;;;;;5026624;28;20276;-64
2021/11/05 03:44:48;;;;;;;20.20;14.63;;;8.30;99.90;;;;;;5026165;28;20233;-64
2021/11/05 03:47:16;;;;;;;19.10;13.37;;;8.20;99.90;;;;;;5025690;28;20320;-64
2021/11/05 03:49:45;;;;;;;17.20;13.53;;;8.20;99.90;;;;;;5026208;28;20716;-64
2021/11/05 03:52:13;;;;;;;19.87;14.30;;;8.40;99.90;;;;;;5026602;28;20291;-64
2021/11/05 03:54:42;;;;;;;17.67;13.23;;;8.30;99.90;;;;;;5026425;28;20224;-65
2021/11/05 03:57:10;;;;;;;17.20;13.83;;;8.30;99.90;;;;;;5026156;28;20240;-64
2021/11/05 03:59:38;;;;;;;20.53;14.03;;;8.40;99.90;;;;;;5025423;28;20311;-63
2021/11/05 04:02:06;;;;;;;21.00;14.23;;;8.40;99.90;;;;;;5025618;28;20837;-64
2021/11/05 04:04:35;;;;;;;18.80;15.10;;;8.50;99.90;;;;;;5025971;28;20242;-64
2021/11/05 04:07:05;;;;;;;19.37;14.63;;;8.30;99.90;;;;;;5026488;28;20236;-64
2021/11/05 04:09:33;;;;;;;17.57;14.13;;;8.30;99.90;;;;;;5025585;28;20744;-63
2021/11/05 04:12:01;;;;;;;18.60;13.90;;;8.30;99.90;;;;;;5025873;28;20233;-63
2021/11/05 04:14:29;;;;;;;17.63;14.03;;;8.30;99.90;;;;;;5020108;28;20323;-65
2021/11/05 04:16:58;;;;;;;16.90;13.77;;;8.20;99.90;;;;;;5026724;28;20233;-64
2021/11/05 04:19:26;;;;;;;18.70;13.83;;;8.20;99.90;;;;;;5025421;28;20303;-64
2021/11/05 04:21:54;;;;;;;17.70;12.70;;;8.20;99.90;;;;;;5026223;28;20233;-64
2021/11/05 04:24:23;;;;;;;17.83;12.53;;;8.30;99.90;;;;;;5024954;28;20241;-65
2021/11/05 04:26:51;;;;;;;17.87;13.77;;;8.20;99.90;;;;;;5026088;28;20249;-64
2021/11/05 04:29:20;;;;;;;19.43;13.13;;;8.40;99.90;;;;;;5026040;28;20240;-64
2021/11/05 04:31:48;;;;;;;20.50;13.70;;;8.50;99.90;;;;;;5029631;28;20599;-63
2021/11/05 04:34:16;;;;;;;22.53;14.73;;;8.40;99.90;;;;;;5029654;28;20232;-63
2021/11/05 04:36:45;;;;;;;17.73;13.03;;;8.30;99.90;;;;;;5029714;28;20243;-64
2021/11/05 04:39:17;;;;;;;17.13;13.70;;;8.20;99.90;;;;;;5028947;28;20315;-64
2021/11/05 04:41:47;;;;;;;18.60;12.23;;;8.30;99.90;;;;;;5029456;28;20981;-65
2021/11/05 04:44:15;;;;;;;16.47;11.20;;;8.10;99.90;;;;;;5029309;28;20236;-64
2021/11/05 04:46:43;;;;;;;15.33;11.60;;;8.20;99.90;;;;;;5027795;28;20236;-64
2021/11/05 04:49:12;;;;;;;17.73;13.17;;;8.20;99.90;;;;;;5025678;28;20256;-64
2021/11/05 04:51:40;;;;;;;16.40;12.67;;;8.20;99.90;;;;;;5026758;28;20451;-63
2021/11/05 04:54:08;;;;;;;15.13;11.73;;;8.20;99.90;;;;;;5028450;28;20331;-65
2021/11/05 04:56:36;;;;;;;17.03;11.70;;;8.30;99.90;;;;;;5028244;28;20232;-63
2021/11/05 04:59:10;;;;;;;14.70;11.10;;;8.20;99.90;;;;;;5027971;28;20236;-64
2021/11/05 05:01:38;;;;;;;15.67;11.27;;;8.20;99.90;;;;;;5027855;28;20236;-64
2021/11/05 05:04:06;;;;;;;12.87;10.33;;;8.20;99.90;;;;;;5027206;28;20737;-64
2021/11/05 05:06:34;;;;;;;15.67;10.63;;;8.30;99.90;;;;;;5027448;28;20237;-63
2021/11/05 05:09:03;;;;;;;17.83;10.57;;;8.20;99.90;;;;;;5013303;28;20828;-64
2021/11/05 05:11:32;;;;;;;13.33;11.00;;;8.40;99.90;;;;;;5014660;28;20240;-65
2021/11/05 05:14:00;;;;;;;13.27;10.10;;;8.40;99.90;;;;;;5014296;28;20335;-64
2021/11/05 05:16:29;;;;;;;13.60;10.10;;;8.40;99.90;;;;;;5015138;28;20248;-64
2021/11/05 05:18:57;;;;;;;12.60;10.30;;;8.50;99.90;;;;;;5013261;28;20341;-65
2021/11/05 05:21:26;;;;;;;13.97;10.30;;;8.40;99.90;;;;;;5014356;28;20244;-65
2021/11/05 05:23:54;;;;;;;15.37;11.00;;;8.50;99.90;;;;;;5014778;28;20248;-64
2021/11/05 05:26:22;;;;;;;12.40;9.33;;;8.40;99.90;;;;;;5014940;28;20267;-64
2021/11/05 05:28:50;;;;;;;13.93;9.07;;;8.40;99.90;;;;;;5013591;28;20244;-65
2021/11/05 05:31:19;;;;;;;14.30;10.53;;;8.40;99.90;;;;;;5014187;28;20233;-65
2021/11/05 05:33:48;;;;;;;14.43;10.87;;;8.30;99.90;;;;;;5014354;28;20244;-65
2021/11/05 05:36:16;;;;;;;13.03;9.03;;;8.00;99.90;;;;;;5014025;28;20750;-64
2021/11/05 05:38:44;;;;;;;13.93;10.10;;;8.10;99.90;;;;;;5012966;28;20286;-65
2021/11/05 05:41:12;;;;;;;13.03;9.93;;;8.10;99.90;;;;;;5013659;28;20233;-65
2021/11/05 05:43:41;;;;;;;13.93;9.63;;;7.90;99.90;;;;;;5014401;28;20240;-64
2021/11/05 05:46:09;;;;;;;11.43;9.90;;;7.90;99.90;;;;;;5015468;28;20589;-64
2021/11/05 05:48:37;;;;;;;15.23;9.47;;;8.00;99.90;;;;;;5019444;28;20310;-64
2021/11/05 05:51:07;;;;;;;12.97;8.90;;;8.10;99.90;;;;;;5024324;28;20248;-63
2021/11/05 05:53:35;;;;;;;14.33;9.63;;;8.10;99.90;;;;;;5027646;28;20252;-64
2021/11/05 05:56:03;;;;;;;13.03;9.10;;;8.10;99.90;;;;;;5027478;28;20235;-65
2021/11/05 05:58:32;;;;;;;14.03;10.23;;;8.10;99.90;;;;;;5027432;28;20658;-64
2021/11/05 06:01:00;;;;;;;13.37;9.23;;;8.20;99.90;;;;;;5026323;28;20228;-65
2021/11/05 06:03:28;;;;;;;14.40;10.40;;;8.10;99.90;;;;;;5026510;28;20570;-64
2021/11/05 06:05:56;;;;;;;13.30;9.20;;;8.10;99.90;;;;;;5027453;28;20240;-64
2021/11/05 06:08:25;;;;;;;13.87;9.27;;;8.10;99.90;;;;;;5027696;28;20689;-64
2021/11/05 06:10:54;;;;;;;14.40;8.53;;;8.10;99.90;;;;;;5026562;28;20301;-65
2021/11/05 06:13:22;;;;;;;13.13;9.53;;;8.20;99.90;;;;;;5027427;28;20889;-64
2021/11/05 06:15:51;;;;;;;15.57;9.00;;;8.30;99.90;;;;;;5027397;28;20731;-63
2021/11/05 06:18:19;;;;;;;13.93;9.03;;;8.20;99.90;;;;;;5026928;28;20251;-63
2021/11/05 06:20:47;;;;;;;13.80;8.53;;;8.10;99.90;;;;;;5022091;28;20382;-65
2021/11/05 06:23:15;;;;;;;12.47;9.07;;;8.20;99.90;;;;;;5027468;28;20244;-65
2021/11/05 06:25:45;;;;;;;12.23;8.37;;;8.10;99.90;;;;;;5027026;28;20232;-64
2021/11/05 06:28:13;;;;;;;19.37;8.97;;;8.10;99.90;;;;;;5027118;28;20695;-64
2021/11/05 06:30:41;;;;;;;12.80;7.83;;;8.10;99.90;;;;;;5026638;28;20240;-63
2021/11/05 06:33:10;;;;;;;10.77;7.50;;;8.10;99.90;;;;;;5027474;28;20311;-64
2021/11/05 06:35:38;;;;;;;16.03;8.33;;;8.10;99.90;;;;;;5026511;28;20232;-64
2021/11/05 06:38:07;;;;;;;9.57;7.17;;;8.10;99.90;;;;;;5022700;28;20247;-63
2021/11/05 06:40:35;;;;;;;11.90;7.43;;;8.10;99.90;;;;;;5026972;28;20697;-63
2021/11/05 06:43:05;;;;;;;12.30;7.00;;;8.10;99.90;;;;;;5025896;28;20324;-64
2021/11/05 06:45:33;;;;;;;9.57;7.33;;;8.10;99.90;;;;;;5026732;28;20232;-63
2021/11/05 06:48:01;;;;;;;11.43;7.37;;;8.10;99.90;;;;;;5027484;28;20259;-64
2021/11/05 06:50:29;;;;;;;11.57;7.53;;;8.10;99.90;;;;;;5022847;28;20725;-64
2021/11/05 06:52:57;;;;;;;12.20;7.13;;;8.10;99.90;;;;;;5026546;28;20684;-64
2021/11/05 06:55:25;;;;;;;10.47;7.87;;;8.10;99.90;;;;;;5026931;28;20239;-63
2021/11/05 06:57:53;;;;;;;10.87;7.60;;;8.20;99.90;;;;;;5026607;28;20326;-63
2021/11/05 07:00:23;;;;;;;11.07;8.30;;;8.30;99.90;;;;;;5024870;28;20247;-63
2021/11/05 07:02:51;;;;;;;12.23;7.97;;;8.20;99.90;;;;;;5023659;28;20279;-65
2021/11/05 07:05:19;;;;;;;13.30;8.27;;;8.20;99.90;;;;;;5027052;28;20240;-64
2021/11/05 07:07:47;;;;;;;11.17;8.30;;;8.30;99.90;;;;;;5026996;28;20241;-64
2021/11/05 07:10:15;;;;;;;11.47;8.00;;;8.30;99.90;;;;;;5026166;28;20319;-64
2021/11/05 07:12:43;;;;;;;13.37;8.37;;;8.30;99.90;;;;;;5026855;28;20263;-64
2021/11/05 07:15:12;;;;;;;12.10;8.07;;;8.30;99.90;;;;;;5026148;28;20757;-64
2021/11/05 07:17:41;;;;;;;12.73;8.30;;;8.30;99.90;;;;;;5026784;28;20327;-63
2021/11/05 07:20:10;;;;;;;12.03;8.07;;;8.30;99.90;;;;;;5025605;28;20224;-63
2021/11/05 07:22:39;;;;;;;13.47;8.83;;;8.30;99.90;;;;;;5026862;28;20717;-64
2021/11/05 07:25:08;;;;;;;11.67;7.73;;;8.20;99.90;;;;;;5026333;28;20737;-64
2021/11/05 07:27:37;;;;;;;11.37;8.33;;;8.20;99.90;;;;;;5026771;28;20237;-64
2021/11/05 07:30:08;;;;;;;10.63;7.70;;;8.20;99.90;;;;;;5025248;28;20229;-63
2021/11/05 07:32:37;;;;;;;12.67;7.73;;;8.20;99.90;;;;;;5026264;28;20614;-63
2021/11/05 07:35:07;;;;;;;10.87;8.67;;;8.20;99.90;;;;;;5026151;28;20235;-64
2021/11/05 07:37:35;;;;;;;17.57;8.20;;;8.10;99.90;;;;;;5025422;28;20235;-66
2021/11/05 07:40:04;;;;;;;15.23;8.17;;;8.20;99.90;;;;;;5024269;28;20767;-65
2021/11/05 07:42:32;;;;;;;14.82;9.93;;;8.30;99.90;;;;;;5023692;28;20536;-64
2021/11/05 07:45:00;;;;;;;13.70;8.10;;;8.40;99.90;;;;;;5009828;28;20264;-63
2021/11/05 07:47:28;;;;;;;13.20;7.10;;;8.40;99.90;;;;;;5006152;28;20236;-64
2021/11/05 07:49:57;;;;;;;11.43;6.97;;;8.50;99.90;;;;;;5006212;28;20995;-64
2021/11/05 07:52:26;;;;;;;13.80;7.03;;;8.50;99.90;;;;;;5007071;28;20239;-64
2021/11/05 07:54:55;;;;;;;10.83;6.63;;;8.60;99.90;;;;;;5006102;28;20248;-65
2021/11/05 07:57:23;;;;;;;10.90;7.43;;;8.60;99.90;;;;;;5004450;28;20282;-65
2021/11/05 07:59:52;;;;;;;7.07;5.60;;;8.60;99.90;;;;;;5006874;28;20228;-64
2021/11/05 08:02:21;;;;;;;8.43;5.73;;;8.50;99.90;;;;;;5007139;28;20335;-64
2021/11/05 08:04:49;;;;;;;9.90;6.03;;;8.50;99.90;;;;;;5008258;28;20239;-65
2021/11/05 08:07:20;;;;;;;11.17;5.43;;;8.60;99.90;;;;;;5004425;28;20816;-66
2021/11/05 08:09:50;;;;;;;7.67;4.80;;;8.50;99.90;;;;;;5000159;28;20498;-65
2021/11/05 08:12:18;;;;;;;6.47;4.63;;;8.50;99.90;;;;;;5001258;28;20228;-66
2021/11/05 08:14:47;;;;;;;7.90;5.57;;;8.70;99.90;;;;;;4999732;28;20342;-65
2021/11/05 08:17:16;;;;;;;7.57;5.17;;;8.90;99.90;;;;;;4996089;28;21534;-65
2021/11/05 08:19:46;;;;;;;8.40;5.20;;;9.20;99.90;;;;;;5000330;28;20232;-65
2021/11/05 08:22:17;;;;;;;9.40;4.93;;;9.20;99.90;;;;;;4983232;28;20244;-65
2021/11/05 08:24:47;;;;;;;8.33;5.07;;;9.20;99.90;;;;;;4999443;28;20734;-65
2021/11/05 08:27:17;;;;;;;8.70;5.30;;;9.10;99.90;;;;;;4996749;28;20503;-65
2021/11/05 08:29:45;;;;;;;8.83;4.83;;;9.10;99.90;;;;;;4999433;28;21650;-65
2021/11/05 08:32:13;;;;;;;7.03;4.70;;;9.10;99.90;;;;;;5000255;28;20235;-65
2021/11/05 08:34:42;;;;;;;8.70;4.97;;;9.20;99.90;;;;;;4999747;28;20248;-66
2021/11/05 08:37:11;;;;;;;6.53;4.40;;;9.20;99.90;;;;;;4998399;28;20236;-65
2021/11/05 08:39:40;;;;;;;9.03;4.27;;;9.10;99.90;;;;;;4999149;28;20263;-65
2021/11/05 08:42:08;;;;;;;5.57;4.03;;;9.10;99.90;;;;;;4999984;28;20247;-65
2021/11/05 08:44:39;;;;;;;9.00;4.10;;;9.10;99.90;;;;;;4999462;28;20850;-65
2021/11/05 08:47:10;;;;;;;5.90;3.50;;;9.10;99.90;;;;;;4997495;28;20256;-66
2021/11/05 08:49:38;;;;;;;8.37;3.97;;;9.20;99.90;;;;;;4999602;28;20264;-65
2021/11/05 08:52:07;;;;;;;7.60;3.70;;;9.20;99.90;;;;;;4999705;28;20244;-66
2021/11/05 08:54:36;;;;;;;7.73;4.43;;;9.20;99.90;;;;;;4999004;28;20420;-65
2021/11/05 08:57:06;;;;;;;6.10;2.93;;;9.20;99.90;;;;;;4996032;28;20233;-65
2021/11/05 08:59:37;;;;;;;7.27;3.77;;;9.20;99.90;;;;;;5005220;28;20642;-66
2021/11/05 09:02:08;;;;;;;11.10;3.70;;;9.10;99.90;;;;;;5007683;28;20224;-65
2021/11/05 09:04:37;;;;;;;5.83;2.93;;;9.20;99.90;;;;;;5010109;28;20229;-65
2021/11/05 09:07:07;;;;;;;4.27;2.93;;;9.40;99.90;;;;;;5006468;28;20244;-65
2021/11/05 09:09:35;;;;;;;8.17;3.60;;;9.40;99.90;;;;;;5007920;28;20231;-66
2021/11/05 09:12:04;;;;;;;5.40;2.90;;;9.50;99.90;;;;;;5008808;28;20611;-65
2021/11/05 09:14:33;;;;;;;6.30;3.10;;;9.80;99.90;;;;;;5008846;28;20236;-65
2021/11/05 09:17:12;;;;;;;7.97;2.97;;;10.10;99.90;;;;;;5006235;28;20239;-64
2021/11/05 09:19:42;;;;;;;4.53;3.03;;;10.20;99.90;;;;;;5007167;28;20243;-65
2021/11/05 09:22:12;;;;;;;4.03;2.80;;;10.20;99.90;;;;;;4990629;28;20683;-66
2021/11/05 09:24:43;;;;;;;9.57;2.97;;;10.10;99.90;;;;;;5009430;28;20742;-66
2021/11/05 09:27:14;;;;;;;6.67;2.00;;;10.10;99.90;;;;;;5005608;28;20267;-66
2021/11/05 09:29:44;;;;;;;3.30;1.63;;;10.10;99.90;;;;;;5005932;28;20245;-66
2021/11/05 09:32:15;;;;;;;7.70;1.90;;;10.10;99.90;;;;;;5006390;28;20244;-66
2021/11/05 09:34:44;;;;;;;6.00;1.60;;;10.20;99.90;;;;;;5009299;28;20241;-65
2021/11/05 09:37:13;;;;;;;6.63;1.47;;;10.40;99.90;;;;;;5007315;28;20316;-66
2021/11/05 09:39:42;;;;;;;7.97;1.80;;;10.50;99.90;;;;;;5008325;28;20310;-65
2021/11/05 09:42:10;;;;;;;4.67;1.20;;;10.70;99.90;;;;;;5009226;28;20264;-66
2021/11/05 09:44:40;;;;;;;4.97;1.27;;;10.90;99.90;;;;;;5007902;28;20244;-65
2021/11/05 09:47:09;;;;;;;6.67;1.60;;;11.00;99.90;;;;;;5006889;28;20241;-65
2021/11/05 09:49:38;;;;;;;3.47;1.10;;;10.90;99.90;;;;;;5005482;28;21028;-66
2021/11/05 09:52:07;;;;;;;3.87;1.07;;;10.90;99.90;;;;;;5008093;28;20251;-66
2021/11/05 09:54:39;;;;;;;4.27;1.40;;;10.90;99.90;;;;;;5009443;28;20236;-65
2021/11/05 09:57:08;;;;;;;7.23;1.30;;;11.00;99.90;;;;;;5006421;28;20236;-66
2021/11/05 09:59:37;;;;;;;5.47;1.57;;;11.10;99.90;;;;;;5006757;28;20752;-66
2021/11/05 10:02:06;;;;;;;4.13;1.20;;;11.30;99.90;;;;;;5006896;28;20245;-66
2021/11/05 10:04:36;;;;;;;3.60;1.10;;;11.40;99.90;;;;;;5008271;28;20245;-66
2021/11/05 10:07:09;;;;;;;7.50;1.50;;;11.50;99.90;;;;;;5006227;28;20244;-66
2021/11/05 10:09:40;;;;;;;5.63;1.73;;;11.60;99.90;;;;;;5006429;28;20550;-66
2021/11/05 10:12:12;;;;;;;2.23;1.10;;;11.60;99.90;;;;;;5007903;28;20313;-65
2021/11/05 10:14:41;;;;;;;5.17;1.07;;;11.60;99.90;;;;;;5008333;28;20246;-66
2021/11/05 10:17:12;;;;;;;2.90;1.40;;;11.70;99.90;;;;;;5006455;28;20346;-65
2021/11/05 10:19:55;;;;;;;2.83;1.10;;;11.70;99.90;;;;;;5005777;28;20750;-66
2021/11/05 10:22:46;;;;;;;3.50;1.17;;;11.70;99.90;;;;;;5007180;28;20565;-65
2021/11/05 10:25:30;;;;;;;3.40;1.10;;;11.80;99.90;;;;;;5007849;28;20250;-66
2021/11/05 10:28:10;;;;;;;4.80;1.07;;;11.70;99.90;;;;;;5003804;28;20246;-66
2021/11/05 10:30:54;;;;;;;2.73;1.00;;;11.80;99.90;;;;;;5007291;28;20237;-66
2021/11/05 10:33:28;;;;;;;5.33;1.13;;;11.80;99.90;;;;;;5008084;28;20245;-66
2021/11/05 10:35:59;;;;;;;3.27;1.03;;;11.80;99.90;;;;;;5008073;28;20585;-66
2021/11/05 10:38:35;;;;;;;3.07;1.27;;;11.80;99.90;;;;;;5005136;28;20246;-66
2021/11/05 10:41:05;;;;;;;5.80;1.07;;;11.80;99.90;;;;;;5007740;28;20331;-66
2021/11/05 10:43:43;;;;;;;2.63;1.10;;;11.80;99.90;;;;;;5010415;28;20332;-66
2021/11/05 10:46:27;;;;;;;3.57;1.10;;;11.90;99.90;;;;;;5011640;28;20243;-65
2021/11/05 10:48:58;;;;;;;4.07;0.90;;;11.90;99.90;;;;;;5006825;28;20690;-66
2021/11/05 10:51:30;;;;;;;3.73;0.90;;;11.90;99.90;;;;;;5011140;28;20276;-65
2021/11/05 10:54:01;;;;;;;2.43;0.80;;;11.90;99.90;;;;;;5012083;28;20237;-66
2021/11/05 10:56:34;;;;;;;3.30;1.00;;;11.90;99.90;;;;;;5011394;28;20339;-66
2021/11/05 10:59:06;;;;;;;4.03;0.80;;;12.00;99.90;;;;;;5007627;28;20254;-66
2021/11/05 11:01:37;;;;;;;3.30;0.73;;;12.00;99.90;;;;;;5011778;28;20247;-65
2021/11/05 11:04:12;;;;;;;3.27;0.93;;;12.10;99.90;;;;;;5010952;28;20230;-66
2021/11/05 11:06:41;;;;;;;6.47;0.77;;;12.10;99.90;;;;;;5010981;28;20239;-66
2021/11/05 11:09:13;;;;;;;6.87;1.40;;;12.10;99.90;;;;;;5007407;28;20736;-66
2021/11/05 11:11:43;;;;;;;5.97;1.07;;;11.90;99.90;;;;;;5011052;28;20722;-66
2021/11/05 11:14:16;;;;;;;3.13;0.80;;;12.00;99.90;;;;;;5011347;28;20240;-66
2021/11/05 11:16:47;;;;;;;2.27;0.73;;;11.90;99.90;;;;;;5011099;28;21101;-66
2021/11/05 11:19:19;;;;;;;5.30;1.03;;;11.90;99.90;;;;;;5006602;28;21345;-66
2021/11/05 11:21:55;;;;;;;4.23;0.93;;;11.90;99.90;;;;;;5010872;28;20243;-66
2021/11/05 11:24:27;;;;;;;2.67;1.03;;;11.90;99.90;;;;;;5011860;28;20248;-66
2021/11/05 11:26:56;;;;;;;3.73;1.00;;;11.90;99.90;;;;;;5011496;28;20307;-66
2021/11/05 11:29:27;;;;;;;2.97;0.80;;;12.00;99.90;;;;;;5007270;28;20316;-66
2021/11/05 11:31:58;;;;;;;3.53;0.70;;;11.90;99.90;;;;;;5011602;28;20250;-66
2021/11/05 11:34:27;;;;;;;2.63;0.80;;;11.90;99.90;;;;;;5011395;28;20748;-66
2021/11/05 11:36:59;;;;;;;3.20;0.80;;;12.00;99.90;;;;;;5011598;28;20238;-66
2021/11/05 11:39:33;;;;;;;3.97;1.10;;;12.00;99.90;;;;;;5009446;28;20238;-66
2021/11/05 11:42:04;;;;;;;4.13;0.87;;;12.10;99.90;;;;;;5013431;28;20607;-66
2021/11/05 11:44:35;;;;;;;2.50;0.80;;;12.20;99.90;;;;;;5015027;28;20250;-66
2021/11/05 11:47:06;;;;;;;1.97;0.80;;;12.10;99.90;;;;;;5013893;28;20249;-66
2021/11/05 11:49:44;;;;;;;3.47;1.07;;;12.10;99.90;;;;;;5012830;28;20257;-66
2021/11/05 11:52:34;;;;;;;3.73;0.90;;;11.90;99.90;;;;;;5009859;28;20242;-66
2021/11/05 11:55:19;;;;;;;3.67;1.20;;;11.80;99.90;;;;;;5010101;28;20293;-66
2021/11/05 11:58:10;;;;;;;3.27;0.90;;;11.80;99.90;;;;;;5006094;28;20238;-66
2021/11/05 12:00:40;;;;;;;4.47;1.10;;;11.80;99.90;;;;;;5010442;28;20234;-66
2021/11/05 12:03:13;;;;;;;5.00;0.90;;;11.90;99.90;;;;;;5010105;28;20248;-66
2021/11/05 12:05:45;;;;;;;4.37;0.90;;;12.00;99.90;;;;;;5010298;28;20250;-66
2021/11/05 12:08:19;;;;;;;1.80;0.60;;;12.00;99.90;;;;;;5006454;28;20273;-66
2021/11/05 12:10:50;;;;;;;3.73;1.00;;;12.10;99.90;;;;;;5009622;28;20333;-66
2021/11/05 12:13:42;;;;;;;5.87;1.00;;;12.20;99.90;;;;;;5010171;28;20246;-66
2021/11/05 12:16:26;;;;;;;5.50;0.83;;;12.20;99.90;;;;;;5009735;28;20238;-66
2021/11/05 12:19:22;;;;;;;3.53;0.70;;;12.20;99.90;;;;;;5006750;28;20237;-66
2021/11/05 12:22:10;;;;;;;9.17;1.40;;;12.20;99.90;;;;;;5010839;28;20690;-66
2021/11/05 12:24:39;;;;;;;3.13;0.87;;;12.20;99.90;;;;;;5010102;28;20385;-66
2021/11/05 12:27:16;;;;;;;2.17;0.60;;;12.20;99.90;;;;;;5007631;28;20383;-66
2021/11/05 12:30:01;;;;;;;2.50;0.87;;;12.10;99.90;;;;;;5009138;28;20242;-66
2021/11/05 12:32:36;;;;;;;1.43;0.60;;;12.00;99.90;;;;;;5010003;28;20238;-66
2021/11/05 12:35:21;;;;;;;2.10;0.50;;;12.00;99.90;;;;;;5009108;28;20243;-67
2021/11/05 12:37:57;;;;;;;4.33;0.90;;;11.80;99.90;;;;;;5020681;28;20299;-65
2021/11/05 12:40:37;;;;;;;2.67;0.60;;;11.80;99.90;;;;;;5010842;28;20245;-66
2021/11/05 12:43:35;;;;;;;1.70;0.60;;;11.70;99.90;;;;;;5009628;28;20238;-66
2021/11/05 12:46:22;;;;;;;1.30;0.57;;;11.80;99.90;;;;;;5008660;28;20907;-66
2021/11/05 12:49:01;;;;;;;2.87;0.73;;;11.80;99.90;;;;;;5004193;28;20741;-66
2021/11/05 12:51:39;;;;;;;3.07;0.43;;;11.80;99.90;;;;;;5010008;28;20597;-66
2021/11/05 12:54:11;;;;;;;4.57;0.80;;;11.80;99.90;;;;;;5008520;28;20324;-66
2021/11/05 12:56:42;;;;;;;1.20;0.60;;;11.80;99.90;;;;;;5009081;28;20258;-66
2021/11/05 12:59:15;;;;;;;1.50;0.50;;;11.70;99.90;;;;;;5006326;28;20262;-66